Accueil
METAR-TAF:

METAR-TAF

Aéroports :

Recife, Pernambouc, Brésil

Aéroport international de Recife

latitude: 08-08S, longitude: 034-55W, altitude: 19 m

Observation

Le bulletin a été fait il y a 51 minutes, à 01:00 UTC
Vent 11 kt de sud/sud-est
Température 25°C
Humidité 74%
Pression 1016 hPa
Visibilité 10 km ou plus
Nuages épars à une hauteur de 2500 ft

METAR: SBRF 260100Z 15011KT 9999 SCT025 25/20 Q1016

Heure: 22:51 (01:51 UTC)

Prévision

Le bulletin a été fait il y a 3 heures et 51 minutes, à 22:00 UTC
Prévision valable du 26 à 00 UTC au 26 à 24 UTC
Vent 12 kt de sud-est
Visibilité: 8000 m
Nuages épars à une hauteur de 2200 ft

TAF: SBRF 252200Z 2600/2624 14012KT 8000 SCT022 TN24/2608Z TX28/2615Z RMK PEA

Observations et prévisions météorologiques de plus de 4000 aéroports (messages METAR et TAF).

Les stations disponibles sont représentées par des disques jaunes et rouges sur la carte.

Passer la souris dessus pour voir le nom de la station.

Cliquer dessus pour voir les observations et prévisions météorologiques.

Pour changer de carte: cliquez sur les boutons verts avec une croix noire pour zoomer, sur le bouton vert avec un tiret pour effectuer un zoom arrière, ou sur les flèches vertes pour les cartes adjacentes.


METAR-TAF: